sensor_id;sensor_type;location;lat;lon;timestamp;P1;durP1;ratioP1;P2;durP2;ratioP2
45318;SDS011;31057;48.498;32.260;2024-02-23T00:01:17;42.15;;;23.42;;
45318;SDS011;31057;48.498;32.260;2024-02-23T00:03:19;48.10;;;24.45;;
45318;SDS011;31057;48.498;32.260;2024-02-23T00:05:21;47.67;;;25.27;;
45318;SDS011;31057;48.498;32.260;2024-02-23T00:07:23;50.20;;;24.35;;
45318;SDS011;31057;48.498;32.260;2024-02-23T00:09:25;38.75;;;22.35;;
45318;SDS011;31057;48.498;32.260;2024-02-23T00:11:28;47.20;;;24.55;;
45318;SDS011;31057;48.498;32.260;2024-02-23T00:13:30;41.45;;;22.75;;
45318;SDS011;31057;48.498;32.260;2024-02-23T00:17:34;42.63;;;21.33;;
45318;SDS011;31057;48.498;32.260;2024-02-23T00:19:36;42.95;;;22.40;;
45318;SDS011;31057;48.498;32.260;2024-02-23T00:21:39;42.22;;;22.75;;
45318;SDS011;31057;48.498;32.260;2024-02-23T00:23:41;49.13;;;23.48;;
45318;SDS011;31057;48.498;32.260;2024-02-23T00:25:43;46.63;;;26.38;;
45318;SDS011;31057;48.498;32.260;2024-02-23T00:29:48;50.65;;;22.85;;
45318;SDS011;31057;48.498;32.260;2024-02-23T00:31:50;46.22;;;25.08;;
45318;SDS011;31057;48.498;32.260;2024-02-23T00:35:54;45.70;;;22.92;;
45318;SDS011;31057;48.498;32.260;2024-02-23T00:37:56;42.28;;;24.45;;
45318;SDS011;31057;48.498;32.260;2024-02-23T00:42:00;42.15;;;21.98;;
45318;SDS011;31057;48.498;32.260;2024-02-23T00:44:02;44.83;;;23.05;;
45318;SDS011;31057;48.498;32.260;2024-02-23T00:46:04;48.95;;;25.35;;
45318;SDS011;31057;48.498;32.260;2024-02-23T00:50:09;47.72;;;23.90;;
45318;SDS011;31057;48.498;32.260;2024-02-23T00:52:12;47.00;;;23.05;;
45318;SDS011;31057;48.498;32.260;2024-02-23T00:56:16;46.80;;;23.15;;
45318;SDS011;31057;48.498;32.260;2024-02-23T01:00:19;56.67;;;25.58;;
45318;SDS011;31057;48.498;32.260;2024-02-23T01:02:22;48.42;;;25.05;;
45318;SDS011;31057;48.498;32.260;2024-02-23T01:06:26;44.40;;;22.95;;
45318;SDS011;31057;48.498;32.260;2024-02-23T01:08:29;50.47;;;25.33;;
45318;SDS011;31057;48.498;32.260;2024-02-23T01:10:33;45.08;;;24.17;;
45318;SDS011;31057;48.498;32.260;2024-02-23T01:12:35;44.55;;;24.00;;
45318;SDS011;31057;48.498;32.260;2024-02-23T01:14:37;40.47;;;22.20;;
45318;SDS011;31057;48.498;32.260;2024-02-23T01:16:39;46.97;;;25.23;;
45318;SDS011;31057;48.498;32.260;2024-02-23T01:18:41;47.90;;;24.08;;
45318;SDS011;31057;48.498;32.260;2024-02-23T01:20:43;45.45;;;25.17;;
45318;SDS011;31057;48.498;32.260;2024-02-23T01:24:47;47.85;;;24.92;;
45318;SDS011;31057;48.498;32.260;2024-02-23T01:28:51;46.63;;;22.30;;
45318;SDS011;31057;48.498;32.260;2024-02-23T01:32:55;45.08;;;22.42;;
45318;SDS011;31057;48.498;32.260;2024-02-23T01:36:59;42.10;;;20.20;;
45318;SDS011;31057;48.498;32.260;2024-02-23T01:39:01;35.63;;;19.20;;
45318;SDS011;31057;48.498;32.260;2024-02-23T01:43:05;46.05;;;20.98;;
45318;SDS011;31057;48.498;32.260;2024-02-23T01:45:07;37.72;;;21.50;;
45318;SDS011;31057;48.498;32.260;2024-02-23T01:51:15;38.00;;;18.50;;
45318;SDS011;31057;48.498;32.260;2024-02-23T01:53:18;38.50;;;20.65;;
45318;SDS011;31057;48.498;32.260;2024-02-23T01:55:20;39.63;;;21.33;;
45318;SDS011;31057;48.498;32.260;2024-02-23T01:57:23;40.67;;;21.35;;
45318;SDS011;31057;48.498;32.260;2024-02-23T01:59:46;34.03;;;18.17;;
45318;SDS011;31057;48.498;32.260;2024-02-23T02:03:50;38.05;;;19.98;;
45318;SDS011;31057;48.498;32.260;2024-02-23T02:05:52;39.42;;;21.50;;
45318;SDS011;31057;48.498;32.260;2024-02-23T02:07:55;38.10;;;19.63;;
45318;SDS011;31057;48.498;32.260;2024-02-23T02:10:01;45.00;;;20.48;;
45318;SDS011;31057;48.498;32.260;2024-02-23T02:12:05;38.95;;;20.98;;
45318;SDS011;31057;48.498;32.260;2024-02-23T02:14:07;40.65;;;21.52;;
45318;SDS011;31057;48.498;32.260;2024-02-23T02:18:12;37.70;;;21.48;;
45318;SDS011;31057;48.498;32.260;2024-02-23T02:22:20;39.28;;;19.42;;
45318;SDS011;31057;48.498;32.260;2024-02-23T02:24:22;36.85;;;19.35;;
45318;SDS011;31057;48.498;32.260;2024-02-23T02:26:24;37.92;;;19.13;;
45318;SDS011;31057;48.498;32.260;2024-02-23T02:30:27;36.63;;;18.70;;
45318;SDS011;31057;48.498;32.260;2024-02-23T02:32:29;34.03;;;18.38;;
45318;SDS011;31057;48.498;32.260;2024-02-23T02:34:37;37.80;;;19.38;;
45318;SDS011;31057;48.498;32.260;2024-02-23T02:36:39;37.33;;;19.45;;
45318;SDS011;31057;48.498;32.260;2024-02-23T02:40:43;37.45;;;20.02;;
45318;SDS011;31057;48.498;32.260;2024-02-23T02:42:45;35.65;;;17.48;;
45318;SDS011;31057;48.498;32.260;2024-02-23T02:44:47;35.53;;;18.13;;
45318;SDS011;31057;48.498;32.260;2024-02-23T02:46:49;35.97;;;19.17;;
45318;SDS011;31057;48.498;32.260;2024-02-23T02:48:51;34.28;;;19.02;;
45318;SDS011;31057;48.498;32.260;2024-02-23T02:52:55;44.08;;;20.05;;
45318;SDS011;31057;48.498;32.260;2024-02-23T02:54:59;48.33;;;22.88;;
45318;SDS011;31057;48.498;32.260;2024-02-23T02:57:01;34.22;;;17.95;;
45318;SDS011;31057;48.498;32.260;2024-02-23T03:01:05;35.40;;;17.17;;
45318;SDS011;31057;48.498;32.260;2024-02-23T03:03:07;37.25;;;19.75;;
45318;SDS011;31057;48.498;32.260;2024-02-23T03:05:09;35.25;;;19.42;;
45318;SDS011;31057;48.498;32.260;2024-02-23T03:07:11;61.35;;;22.85;;
45318;SDS011;31057;48.498;32.260;2024-02-23T03:09:13;39.17;;;20.13;;
45318;SDS011;31057;48.498;32.260;2024-02-23T03:11:15;40.35;;;20.33;;
45318;SDS011;31057;48.498;32.260;2024-02-23T03:15:19;36.75;;;20.38;;
45318;SDS011;31057;48.498;32.260;2024-02-23T03:17:21;37.50;;;19.80;;
45318;SDS011;31057;48.498;32.260;2024-02-23T03:19:23;44.22;;;20.10;;
45318;SDS011;31057;48.498;32.260;2024-02-23T03:21:25;36.53;;;19.40;;
45318;SDS011;31057;48.498;32.260;2024-02-23T03:23:27;40.30;;;22.00;;
45318;SDS011;31057;48.498;32.260;2024-02-23T03:25:30;41.60;;;20.73;;
45318;SDS011;31057;48.498;32.260;2024-02-23T03:27:32;39.63;;;21.20;;
45318;SDS011;31057;48.498;32.260;2024-02-23T03:29:34;36.50;;;19.83;;
45318;SDS011;31057;48.498;32.260;2024-02-23T03:33:38;35.70;;;16.85;;
45318;SDS011;31057;48.498;32.260;2024-02-23T03:35:40;41.35;;;20.05;;
45318;SDS011;31057;48.498;32.260;2024-02-23T03:39:44;42.50;;;21.35;;
45318;SDS011;31057;48.498;32.260;2024-02-23T03:41:46;38.22;;;20.83;;
45318;SDS011;31057;48.498;32.260;2024-02-23T03:43:48;48.88;;;22.35;;
45318;SDS011;31057;48.498;32.260;2024-02-23T03:45:50;48.15;;;21.45;;
45318;SDS011;31057;48.498;32.260;2024-02-23T03:47:52;42.55;;;21.42;;
45318;SDS011;31057;48.498;32.260;2024-02-23T03:51:56;35.88;;;17.70;;
45318;SDS011;31057;48.498;32.260;2024-02-23T03:53:58;35.50;;;18.35;;
45318;SDS011;31057;48.498;32.260;2024-02-23T03:56:00;37.85;;;19.45;;
45318;SDS011;31057;48.498;32.260;2024-02-23T04:00:04;39.67;;;20.23;;
45318;SDS011;31057;48.498;32.260;2024-02-23T04:02:07;36.08;;;19.02;;
45318;SDS011;31057;48.498;32.260;2024-02-23T04:04:10;46.22;;;20.83;;
45318;SDS011;31057;48.498;32.260;2024-02-23T04:08:14;38.20;;;19.75;;
45318;SDS011;31057;48.498;32.260;2024-02-23T04:12:18;39.65;;;18.83;;
45318;SDS011;31057;48.498;32.260;2024-02-23T04:14:21;43.17;;;21.00;;
45318;SDS011;31057;48.498;32.260;2024-02-23T04:16:23;40.60;;;20.67;;
45318;SDS011;31057;48.498;32.260;2024-02-23T04:18:28;44.88;;;20.27;;
45318;SDS011;31057;48.498;32.260;2024-02-23T04:22:34;33.35;;;18.38;;
45318;SDS011;31057;48.498;32.260;2024-02-23T04:24:38;37.25;;;20.92;;
45318;SDS011;31057;48.498;32.260;2024-02-23T04:26:40;40.58;;;18.17;;
45318;SDS011;31057;48.498;32.260;2024-02-23T04:28:42;34.38;;;18.15;;
45318;SDS011;31057;48.498;32.260;2024-02-23T04:32:46;33.67;;;17.60;;
45318;SDS011;31057;48.498;32.260;2024-02-23T04:34:49;40.33;;;18.25;;
45318;SDS011;31057;48.498;32.260;2024-02-23T04:38:52;35.38;;;18.85;;
45318;SDS011;31057;48.498;32.260;2024-02-23T04:40:54;41.55;;;20.58;;
45318;SDS011;31057;48.498;32.260;2024-02-23T04:42:58;32.22;;;16.70;;
45318;SDS011;31057;48.498;32.260;2024-02-23T04:44:59;38.42;;;18.27;;
45318;SDS011;31057;48.498;32.260;2024-02-23T04:47:02;32.97;;;17.85;;
45318;SDS011;31057;48.498;32.260;2024-02-23T04:49:04;36.58;;;18.50;;
45318;SDS011;31057;48.498;32.260;2024-02-23T04:51:06;40.75;;;20.27;;
45318;SDS011;31057;48.498;32.260;2024-02-23T04:53:11;35.40;;;19.35;;
45318;SDS011;31057;48.498;32.260;2024-02-23T04:57:15;42.47;;;21.20;;
45318;SDS011;31057;48.498;32.260;2024-02-23T04:59:17;39.15;;;20.88;;
45318;SDS011;31057;48.498;32.260;2024-02-23T05:03:21;39.60;;;18.92;;
45318;SDS011;31057;48.498;32.260;2024-02-23T05:05:23;42.28;;;21.95;;
45318;SDS011;31057;48.498;32.260;2024-02-23T05:09:26;39.13;;;20.83;;
45318;SDS011;31057;48.498;32.260;2024-02-23T05:11:28;45.90;;;22.13;;
45318;SDS011;31057;48.498;32.260;2024-02-23T05:15:32;41.75;;;20.67;;
45318;SDS011;31057;48.498;32.260;2024-02-23T05:17:34;39.70;;;19.85;;
45318;SDS011;31057;48.498;32.260;2024-02-23T05:21:38;36.88;;;19.60;;
45318;SDS011;31057;48.498;32.260;2024-02-23T05:23:40;45.70;;;21.98;;
45318;SDS011;31057;48.498;32.260;2024-02-23T05:25:42;44.78;;;23.15;;
45318;SDS011;31057;48.498;32.260;2024-02-23T05:27:44;41.60;;;21.77;;
45318;SDS011;31057;48.498;32.260;2024-02-23T05:29:46;48.47;;;21.88;;
45318;SDS011;31057;48.498;32.260;2024-02-23T05:33:51;42.80;;;20.33;;
45318;SDS011;31057;48.498;32.260;2024-02-23T05:35:53;42.33;;;21.30;;
45318;SDS011;31057;48.498;32.260;2024-02-23T05:37:55;40.20;;;19.73;;
45318;SDS011;31057;48.498;32.260;2024-02-23T05:39:57;41.50;;;20.45;;
45318;SDS011;31057;48.498;32.260;2024-02-23T05:42:01;55.75;;;22.20;;
45318;SDS011;31057;48.498;32.260;2024-02-23T05:44:06;63.97;;;25.90;;
45318;SDS011;31057;48.498;32.260;2024-02-23T05:46:08;47.30;;;23.83;;
45318;SDS011;31057;48.498;32.260;2024-02-23T05:48:10;46.75;;;20.05;;
45318;SDS011;31057;48.498;32.260;2024-02-23T05:50:13;42.47;;;19.77;;
45318;SDS011;31057;48.498;32.260;2024-02-23T05:54:17;40.60;;;18.10;;
45318;SDS011;31057;48.498;32.260;2024-02-23T05:56:19;36.58;;;18.13;;
45318;SDS011;31057;48.498;32.260;2024-02-23T06:00:23;42.45;;;16.80;;
45318;SDS011;31057;48.498;32.260;2024-02-23T06:02:26;34.83;;;17.27;;
45318;SDS011;31057;48.498;32.260;2024-02-23T06:04:28;37.80;;;18.75;;
45318;SDS011;31057;48.498;32.260;2024-02-23T06:08:33;36.13;;;19.02;;
45318;SDS011;31057;48.498;32.260;2024-02-23T06:10:35;42.80;;;20.88;;
45318;SDS011;31057;48.498;32.260;2024-02-23T06:12:39;49.65;;;21.95;;
45318;SDS011;31057;48.498;32.260;2024-02-23T06:14:41;42.08;;;19.65;;
45318;SDS011;31057;48.498;32.260;2024-02-23T06:16:43;37.67;;;16.73;;
45318;SDS011;31057;48.498;32.260;2024-02-23T06:18:45;32.67;;;18.20;;
45318;SDS011;31057;48.498;32.260;2024-02-23T06:20:48;32.58;;;18.15;;
45318;SDS011;31057;48.498;32.260;2024-02-23T06:22:50;36.80;;;18.15;;
45318;SDS011;31057;48.498;32.260;2024-02-23T06:24:52;35.15;;;18.75;;
45318;SDS011;31057;48.498;32.260;2024-02-23T06:28:56;39.03;;;18.90;;
45318;SDS011;31057;48.498;32.260;2024-02-23T06:30:58;42.45;;;18.77;;
45318;SDS011;31057;48.498;32.260;2024-02-23T06:33:01;42.83;;;18.77;;
45318;SDS011;31057;48.498;32.260;2024-02-23T06:35:04;38.10;;;20.50;;
45318;SDS011;31057;48.498;32.260;2024-02-23T06:37:07;35.58;;;18.27;;
45318;SDS011;31057;48.498;32.260;2024-02-23T06:39:09;36.53;;;18.42;;
45318;SDS011;31057;48.498;32.260;2024-02-23T06:41:12;31.75;;;16.45;;
45318;SDS011;31057;48.498;32.260;2024-02-23T06:43:14;31.98;;;16.58;;
45318;SDS011;31057;48.498;32.260;2024-02-23T06:45:16;40.65;;;16.33;;
45318;SDS011;31057;48.498;32.260;2024-02-23T06:47:18;34.00;;;18.17;;
45318;SDS011;31057;48.498;32.260;2024-02-23T06:51:22;29.35;;;15.55;;
45318;SDS011;31057;48.498;32.260;2024-02-23T06:53:24;55.35;;;19.30;;
45318;SDS011;31057;48.498;32.260;2024-02-23T06:57:28;29.00;;;14.90;;
45318;SDS011;31057;48.498;32.260;2024-02-23T06:59:32;30.70;;;14.85;;
45318;SDS011;31057;48.498;32.260;2024-02-23T07:03:41;29.50;;;14.88;;
45318;SDS011;31057;48.498;32.260;2024-02-23T07:05:45;29.70;;;14.75;;
45318;SDS011;31057;48.498;32.260;2024-02-23T07:07:48;24.67;;;13.90;;
45318;SDS011;31057;48.498;32.260;2024-02-23T07:09:50;31.60;;;17.58;;
45318;SDS011;31057;48.498;32.260;2024-02-23T07:11:53;28.05;;;16.20;;
45318;SDS011;31057;48.498;32.260;2024-02-23T07:15:57;33.80;;;16.77;;
45318;SDS011;31057;48.498;32.260;2024-02-23T07:18:00;28.73;;;14.35;;
45318;SDS011;31057;48.498;32.260;2024-02-23T07:22:07;29.85;;;18.00;;
45318;SDS011;31057;48.498;32.260;2024-02-23T07:26:11;32.30;;;14.82;;
45318;SDS011;31057;48.498;32.260;2024-02-23T07:28:13;27.83;;;15.23;;
45318;SDS011;31057;48.498;32.260;2024-02-23T07:30:19;27.50;;;15.90;;
45318;SDS011;31057;48.498;32.260;2024-02-23T07:32:21;30.63;;;14.48;;
45318;SDS011;31057;48.498;32.260;2024-02-23T07:34:24;27.38;;;13.48;;
45318;SDS011;31057;48.498;32.260;2024-02-23T07:36:26;26.67;;;16.00;;
45318;SDS011;31057;48.498;32.260;2024-02-23T07:38:28;24.05;;;14.18;;
45318;SDS011;31057;48.498;32.260;2024-02-23T07:40:31;35.42;;;15.18;;
45318;SDS011;31057;48.498;32.260;2024-02-23T07:42:33;28.30;;;15.02;;
45318;SDS011;31057;48.498;32.260;2024-02-23T07:44:36;25.75;;;14.35;;
45318;SDS011;31057;48.498;32.260;2024-02-23T07:48:40;34.97;;;17.20;;
45318;SDS011;31057;48.498;32.260;2024-02-23T07:50:43;25.02;;;14.63;;
45318;SDS011;31057;48.498;32.260;2024-02-23T07:52:45;32.20;;;14.20;;
45318;SDS011;31057;48.498;32.260;2024-02-23T07:54:47;29.63;;;15.05;;
45318;SDS011;31057;48.498;32.260;2024-02-23T07:56:49;25.98;;;14.93;;
45318;SDS011;31057;48.498;32.260;2024-02-23T07:58:51;28.52;;;14.85;;
45318;SDS011;31057;48.498;32.260;2024-02-23T08:02:55;30.50;;;14.10;;
45318;SDS011;31057;48.498;32.260;2024-02-23T08:05:01;26.50;;;13.98;;
45318;SDS011;31057;48.498;32.260;2024-02-23T08:07:05;24.80;;;14.90;;
45318;SDS011;31057;48.498;32.260;2024-02-23T08:09:08;24.17;;;14.43;;
45318;SDS011;31057;48.498;32.260;2024-02-23T08:11:10;28.90;;;15.13;;
45318;SDS011;31057;48.498;32.260;2024-02-23T08:13:12;28.20;;;15.82;;
45318;SDS011;31057;48.498;32.260;2024-02-23T08:15:14;23.30;;;14.05;;
45318;SDS011;31057;48.498;32.260;2024-02-23T08:19:18;26.75;;;11.60;;
45318;SDS011;31057;48.498;32.260;2024-02-23T08:21:20;23.77;;;13.40;;
45318;SDS011;31057;48.498;32.260;2024-02-23T08:23:23;25.52;;;14.77;;
45318;SDS011;31057;48.498;32.260;2024-02-23T08:25:25;28.63;;;13.38;;
45318;SDS011;31057;48.498;32.260;2024-02-23T08:27:30;23.73;;;13.07;;
45318;SDS011;31057;48.498;32.260;2024-02-23T08:31:34;27.33;;;14.05;;
45318;SDS011;31057;48.498;32.260;2024-02-23T08:33:39;25.20;;;13.45;;
45318;SDS011;31057;48.498;32.260;2024-02-23T08:37:44;33.53;;;15.77;;
45318;SDS011;31057;48.498;32.260;2024-02-23T08:39:46;33.22;;;16.73;;
45318;SDS011;31057;48.498;32.260;2024-02-23T08:41:48;26.95;;;15.57;;
45318;SDS011;31057;48.498;32.260;2024-02-23T08:43:52;35.80;;;15.45;;
45318;SDS011;31057;48.498;32.260;2024-02-23T08:45:57;28.17;;;13.90;;
45318;SDS011;31057;48.498;32.260;2024-02-23T08:48:05;28.25;;;15.98;;
45318;SDS011;31057;48.498;32.260;2024-02-23T08:50:08;29.63;;;15.10;;
45318;SDS011;31057;48.498;32.260;2024-02-23T08:52:10;33.95;;;15.13;;
45318;SDS011;31057;48.498;32.260;2024-02-23T08:54:12;27.08;;;13.48;;
45318;SDS011;31057;48.498;32.260;2024-02-23T08:56:14;27.63;;;13.38;;
45318;SDS011;31057;48.498;32.260;2024-02-23T08:58:17;32.25;;;14.70;;
45318;SDS011;31057;48.498;32.260;2024-02-23T09:00:19;29.13;;;14.70;;
45318;SDS011;31057;48.498;32.260;2024-02-23T09:04:23;30.60;;;14.75;;
45318;SDS011;31057;48.498;32.260;2024-02-23T09:06:25;25.60;;;14.65;;
45318;SDS011;31057;48.498;32.260;2024-02-23T09:08:27;24.83;;;13.50;;
45318;SDS011;31057;48.498;32.260;2024-02-23T09:12:32;22.33;;;11.77;;
45318;SDS011;31057;48.498;32.260;2024-02-23T09:14:33;27.95;;;11.93;;
45318;SDS011;31057;48.498;32.260;2024-02-23T09:16:38;19.77;;;12.05;;
45318;SDS011;31057;48.498;32.260;2024-02-23T09:18:40;21.27;;;13.35;;
45318;SDS011;31057;48.498;32.260;2024-02-23T09:20:43;31.85;;;16.08;;
45318;SDS011;31057;48.498;32.260;2024-02-23T09:24:47;20.33;;;12.55;;
45318;SDS011;31057;48.498;32.260;2024-02-23T09:26:49;24.98;;;13.75;;
45318;SDS011;31057;48.498;32.260;2024-02-23T09:30:53;23.33;;;12.10;;
45318;SDS011;31057;48.498;32.260;2024-02-23T09:32:58;22.55;;;12.70;;
45318;SDS011;31057;48.498;32.260;2024-02-23T09:35:01;25.67;;;13.23;;
45318;SDS011;31057;48.498;32.260;2024-02-23T09:37:04;24.02;;;13.05;;
45318;SDS011;31057;48.498;32.260;2024-02-23T09:39:06;23.35;;;12.10;;
45318;SDS011;31057;48.498;32.260;2024-02-23T09:41:11;25.02;;;12.82;;
45318;SDS011;31057;48.498;32.260;2024-02-23T09:43:22;26.00;;;12.27;;
45318;SDS011;31057;48.498;32.260;2024-02-23T09:45:27;24.30;;;12.25;;
45318;SDS011;31057;48.498;32.260;2024-02-23T09:47:30;20.55;;;12.48;;
45318;SDS011;31057;48.498;32.260;2024-02-23T09:49:39;24.80;;;13.45;;
45318;SDS011;31057;48.498;32.260;2024-02-23T09:51:42;26.77;;;13.35;;
45318;SDS011;31057;48.498;32.260;2024-02-23T09:53:45;21.75;;;12.98;;
45318;SDS011;31057;48.498;32.260;2024-02-23T09:55:49;21.25;;;11.77;;
45318;SDS011;31057;48.498;32.260;2024-02-23T09:57:55;19.30;;;11.63;;
45318;SDS011;31057;48.498;32.260;2024-02-23T09:59:59;20.10;;;12.07;;
45318;SDS011;31057;48.498;32.260;2024-02-23T10:02:08;27.83;;;11.15;;
45318;SDS011;31057;48.498;32.260;2024-02-23T10:04:13;25.83;;;12.13;;
45318;SDS011;31057;48.498;32.260;2024-02-23T10:06:16;17.00;;;10.65;;
45318;SDS011;31057;48.498;32.260;2024-02-23T10:10:38;27.02;;;11.43;;
45318;SDS011;31057;48.498;32.260;2024-02-23T10:12:40;20.40;;;10.88;;
45318;SDS011;31057;48.498;32.260;2024-02-23T10:14:42;16.98;;;9.90;;
45318;SDS011;31057;48.498;32.260;2024-02-23T10:16:44;27.50;;;12.73;;
45318;SDS011;31057;48.498;32.260;2024-02-23T10:18:47;27.27;;;11.63;;
45318;SDS011;31057;48.498;32.260;2024-02-23T10:20:50;15.18;;;10.13;;
45318;SDS011;31057;48.498;32.260;2024-02-23T10:22:54;20.77;;;10.85;;
45318;SDS011;31057;48.498;32.260;2024-02-23T10:24:56;16.70;;;10.38;;
45318;SDS011;31057;48.498;32.260;2024-02-23T10:27:00;23.58;;;9.90;;
45318;SDS011;31057;48.498;32.260;2024-02-23T10:29:03;23.30;;;10.88;;
45318;SDS011;31057;48.498;32.260;2024-02-23T10:31:06;19.48;;;10.98;;
45318;SDS011;31057;48.498;32.260;2024-02-23T10:33:12;15.60;;;10.15;;
45318;SDS011;31057;48.498;32.260;2024-02-23T10:35:16;17.90;;;9.85;;
45318;SDS011;31057;48.498;32.260;2024-02-23T10:37:19;16.30;;;9.70;;
45318;SDS011;31057;48.498;32.260;2024-02-23T10:39:24;14.00;;;9.45;;
45318;SDS011;31057;48.498;32.260;2024-02-23T10:41:27;20.95;;;9.75;;
45318;SDS011;31057;48.498;32.260;2024-02-23T10:43:33;17.42;;;10.45;;
45318;SDS011;31057;48.498;32.260;2024-02-23T10:45:41;19.10;;;10.10;;
45318;SDS011;31057;48.498;32.260;2024-02-23T10:47:44;20.35;;;9.70;;
45318;SDS011;31057;48.498;32.260;2024-02-23T10:49:47;22.80;;;11.52;;
45318;SDS011;31057;48.498;32.260;2024-02-23T10:51:50;15.27;;;9.15;;
45318;SDS011;31057;48.498;32.260;2024-02-23T10:53:53;16.25;;;9.90;;
45318;SDS011;31057;48.498;32.260;2024-02-23T10:55:56;17.05;;;9.93;;
45318;SDS011;31057;48.498;32.260;2024-02-23T10:58:01;18.05;;;9.40;;
45318;SDS011;31057;48.498;32.260;2024-02-23T11:00:04;15.93;;;9.13;;
45318;SDS011;31057;48.498;32.260;2024-02-23T11:02:11;13.07;;;8.38;;
45318;SDS011;31057;48.498;32.260;2024-02-23T11:04:17;27.77;;;9.23;;
45318;SDS011;31057;48.498;32.260;2024-02-23T11:06:27;34.83;;;10.00;;
45318;SDS011;31057;48.498;32.260;2024-02-23T11:08:30;22.33;;;9.65;;
45318;SDS011;31057;48.498;32.260;2024-02-23T11:11:36;15.38;;;9.57;;
45318;SDS011;31057;48.498;32.260;2024-02-23T11:13:12;14.63;;;8.80;;
45318;SDS011;31057;48.498;32.260;2024-02-23T11:15:29;20.70;;;9.35;;
45318;SDS011;31057;48.498;32.260;2024-02-23T11:17:35;16.92;;;8.82;;
45318;SDS011;31057;48.498;32.260;2024-02-23T11:19:39;17.65;;;9.10;;
45318;SDS011;31057;48.498;32.260;2024-02-23T11:21:41;15.93;;;7.88;;
45318;SDS011;31057;48.498;32.260;2024-02-23T11:23:44;15.05;;;9.13;;
45318;SDS011;31057;48.498;32.260;2024-02-23T11:26:26;16.52;;;8.95;;
45318;SDS011;31057;48.498;32.260;2024-02-23T11:28:24;11.57;;;7.78;;
45318;SDS011;31057;48.498;32.260;2024-02-23T11:30:26;20.45;;;7.88;;
45318;SDS011;31057;48.498;32.260;2024-02-23T11:32:40;19.50;;;7.53;;
45318;SDS011;31057;48.498;32.260;2024-02-23T11:34:54;13.52;;;7.63;;
45318;SDS011;31057;48.498;32.260;2024-02-23T11:36:58;17.50;;;7.60;;
45318;SDS011;31057;48.498;32.260;2024-02-23T11:39:12;18.83;;;8.10;;
45318;SDS011;31057;48.498;32.260;2024-02-23T11:41:15;19.38;;;7.43;;
45318;SDS011;31057;48.498;32.260;2024-02-23T11:43:18;11.77;;;7.47;;
45318;SDS011;31057;48.498;32.260;2024-02-23T11:45:23;20.13;;;8.50;;
45318;SDS011;31057;48.498;32.260;2024-02-23T11:47:26;14.80;;;8.05;;
45318;SDS011;31057;48.498;32.260;2024-02-23T11:53:33;11.00;;;7.85;;
45318;SDS011;31057;48.498;32.260;2024-02-23T11:55:35;16.42;;;9.10;;
45318;SDS011;31057;48.498;32.260;2024-02-23T11:59:50;17.13;;;7.20;;
45318;SDS011;31057;48.498;32.260;2024-02-23T12:01:53;16.63;;;8.65;;
45318;SDS011;31057;48.498;32.260;2024-02-23T12:03:55;19.30;;;8.60;;
45318;SDS011;31057;48.498;32.260;2024-02-23T12:05:57;16.25;;;8.05;;
45318;SDS011;31057;48.498;32.260;2024-02-23T12:08:01;13.27;;;7.70;;
45318;SDS011;31057;48.498;32.260;2024-02-23T12:10:03;14.20;;;7.72;;
45318;SDS011;31057;48.498;32.260;2024-02-23T12:12:07;17.52;;;9.13;;
45318;SDS011;31057;48.498;32.260;2024-02-23T12:14:10;19.70;;;7.57;;
45318;SDS011;31057;48.498;32.260;2024-02-23T12:16:13;14.55;;;8.68;;
45318;SDS011;31057;48.498;32.260;2024-02-23T12:18:16;14.27;;;7.70;;
45318;SDS011;31057;48.498;32.260;2024-02-23T12:20:18;12.30;;;7.68;;
45318;SDS011;31057;48.498;32.260;2024-02-23T12:24:25;20.05;;;8.77;;
45318;SDS011;31057;48.498;32.260;2024-02-23T12:26:29;12.13;;;8.00;;
45318;SDS011;31057;48.498;32.260;2024-02-23T12:28:32;14.68;;;8.48;;
45318;SDS011;31057;48.498;32.260;2024-02-23T12:30:34;13.10;;;7.35;;
45318;SDS011;31057;48.498;32.260;2024-02-23T12:34:38;11.88;;;7.50;;
45318;SDS011;31057;48.498;32.260;2024-02-23T12:36:40;10.70;;;7.38;;
45318;SDS011;31057;48.498;32.260;2024-02-23T12:40:44;14.55;;;7.13;;
45318;SDS011;31057;48.498;32.260;2024-02-23T12:42:46;10.85;;;6.72;;
45318;SDS011;31057;48.498;32.260;2024-02-23T12:44:50;14.68;;;7.63;;
45318;SDS011;31057;48.498;32.260;2024-02-23T12:46:52;15.70;;;7.65;;
45318;SDS011;31057;48.498;32.260;2024-02-23T12:48:53;14.10;;;8.80;;
45318;SDS011;31057;48.498;32.260;2024-02-23T12:50:55;14.90;;;8.82;;
45318;SDS011;31057;48.498;32.260;2024-02-23T12:52:57;14.88;;;8.77;;
45318;SDS011;31057;48.498;32.260;2024-02-23T12:55:00;19.50;;;8.25;;
45318;SDS011;31057;48.498;32.260;2024-02-23T12:57:02;11.32;;;7.00;;
45318;SDS011;31057;48.498;32.260;2024-02-23T12:59:04;13.50;;;7.35;;
45318;SDS011;31057;48.498;32.260;2024-02-23T13:03:09;19.15;;;8.18;;
45318;SDS011;31057;48.498;32.260;2024-02-23T13:05:11;19.67;;;7.65;;
45318;SDS011;31057;48.498;32.260;2024-02-23T13:09:14;9.53;;;6.93;;
45318;SDS011;31057;48.498;32.260;2024-02-23T13:11:16;13.15;;;7.57;;
45318;SDS011;31057;48.498;32.260;2024-02-23T13:15:21;14.35;;;7.25;;
45318;SDS011;31057;48.498;32.260;2024-02-23T13:17:27;11.63;;;7.68;;
45318;SDS011;31057;48.498;32.260;2024-02-23T13:21:31;18.90;;;8.05;;
45318;SDS011;31057;48.498;32.260;2024-02-23T13:23:34;15.95;;;7.00;;
45318;SDS011;31057;48.498;32.260;2024-02-23T13:25:38;14.82;;;8.27;;
45318;SDS011;31057;48.498;32.260;2024-02-23T13:27:40;17.30;;;7.95;;
45318;SDS011;31057;48.498;32.260;2024-02-23T13:29:42;16.10;;;8.70;;
45318;SDS011;31057;48.498;32.260;2024-02-23T13:31:44;21.75;;;8.18;;
45318;SDS011;31057;48.498;32.260;2024-02-23T13:33:46;15.60;;;8.45;;
45318;SDS011;31057;48.498;32.260;2024-02-23T13:35:49;14.60;;;7.05;;
45318;SDS011;31057;48.498;32.260;2024-02-23T13:37:51;15.38;;;7.68;;
45318;SDS011;31057;48.498;32.260;2024-02-23T13:41:55;11.45;;;6.93;;
45318;SDS011;31057;48.498;32.260;2024-02-23T13:43:57;14.27;;;7.55;;
45318;SDS011;31057;48.498;32.260;2024-02-23T13:45:59;16.88;;;7.60;;
45318;SDS011;31057;48.498;32.260;2024-02-23T13:50:05;12.23;;;7.00;;
45318;SDS011;31057;48.498;32.260;2024-02-23T13:52:07;14.55;;;7.25;;
45318;SDS011;31057;48.498;32.260;2024-02-23T13:54:10;21.83;;;7.68;;
45318;SDS011;31057;48.498;32.260;2024-02-23T13:56:13;20.17;;;8.70;;
45318;SDS011;31057;48.498;32.260;2024-02-23T14:00:17;12.07;;;7.60;;
45318;SDS011;31057;48.498;32.260;2024-02-23T14:02:24;18.33;;;7.38;;
45318;SDS011;31057;48.498;32.260;2024-02-23T14:04:28;12.23;;;7.65;;
45318;SDS011;31057;48.498;32.260;2024-02-23T14:06:30;14.98;;;7.30;;
45318;SDS011;31057;48.498;32.260;2024-02-23T14:08:32;29.00;;;9.30;;
45318;SDS011;31057;48.498;32.260;2024-02-23T14:10:39;14.00;;;7.65;;
45318;SDS011;31057;48.498;32.260;2024-02-23T14:12:42;15.35;;;7.25;;
45318;SDS011;31057;48.498;32.260;2024-02-23T14:14:44;15.82;;;9.77;;
45318;SDS011;31057;48.498;32.260;2024-02-23T14:16:46;13.27;;;9.07;;
45318;SDS011;31057;48.498;32.260;2024-02-23T14:20:50;12.23;;;7.93;;